M I D A S
Marine Information and Data Acquisition System
Tripno 1201 of the Zeeleeuw from 2007-01-16 07:30:47 to 2007-01-16 16:02:14
Back to CruiseResearch ActivitiesStationsMapUnderway DataData graphs

EquipmentUnitsComment
TimeDGPSUTC
LatitudeDGPSDM.mWGS84
LongitudeDGPSDM.mWGS84
HeadingGyrodeg 
SOGDGPSknotsSpeed over ground
COGDGPSdegCourse over ground
DepthEcho soundermeters200 kHz
Missing or incorrect values are displayed as -999
Navigation data collected by the RV Zeeleeuw from 2007-01-16 07:34:15 to 2007-01-16 16:20:21
                                                                                    Next 1000 lines
Time Latitude Longitude Heading SOG COG Depth
2007-01-16 07:34:25 51°13.597 2°56.094 113 0.4 305 8.6
2007-01-16 07:34:30 51°13.598 2°56.093 112.9 0.5 296 8.5
2007-01-16 07:34:35 51°13.598 2°56.092 112.9 0.7 299 8.5
2007-01-16 07:34:40 51°13.599 2°56.09 113.2 1 296 8.5
2007-01-16 07:34:46 51°13.599 2°56.087 113.6 1.2 300 8.5
2007-01-16 07:34:50 51°13.6 2°56.085 114 1.5 300 8.6
2007-01-16 07:34:55 51°13.601 2°56.082 114.2 1.6 297 8.7
2007-01-16 07:35:00 51°13.602 2°56.078 114.2 1.8 297 -999
2007-01-16 07:35:06 51°13.603 2°56.074 113.8 1.9 295 -999
2007-01-16 07:35:10 51°13.604 2°56.071 113.2 2 295 -999
2007-01-16 07:35:15 51°13.605 2°56.067 112.7 2.1 292 -999
2007-01-16 07:35:20 51°13.607 2°56.062 112.1 2.2 293 -999
2007-01-16 07:35:26 51°13.608 2°56.057 111.6 2.2 292 -999
2007-01-16 07:35:30 51°13.609 2°56.053 110.7 2.2 293 5.4
2007-01-16 07:35:35 51°13.61 2°56.049 110.1 2.1 291 10.4
2007-01-16 07:35:40 51°13.611 2°56.045 109.2 1.9 289 5
2007-01-16 07:35:45 51°13.611 2°56.041 107.6 1.8 287 -999
2007-01-16 07:35:51 51°13.612 2°56.037 105.7 1.7 286 -999
2007-01-16 07:35:55 51°13.612 2°56.034 104.2 1.4 285 -999
2007-01-16 07:36:00 51°13.613 2°56.032 103.2 1 286 -999
2007-01-16 07:36:05 51°13.613 2°56.03 103.1 0.6 284 -999
2007-01-16 07:36:10 51°13.613 2°56.03 104 0.4 305 11
2007-01-16 07:36:15 51°13.613 2°56.029 105.6 0.4 272 11
2007-01-16 07:36:20 51°13.614 2°56.028 107.1 0.4 293 11
2007-01-16 07:36:25 51°13.614 2°56.027 108.3 0.6 265 -999
2007-01-16 07:36:30 51°13.614 2°56.025 109.3 0.7 287 -999
2007-01-16 07:36:35 51°13.614 2°56.023 109.9 0.9 285 11.1
2007-01-16 07:36:40 51°13.615 2°56.021 110.3 1.1 288 11.1
2007-01-16 07:36:45 51°13.616 2°56.018 110.6 1.3 285 11.2
2007-01-16 07:36:50 51°13.616 2°56.015 111 1.5 287 11.2
2007-01-16 07:36:55 51°13.617 2°56.012 111.2 1.6 288 11.2
2007-01-16 07:37:01 51°13.617 2°56.007 111.8 1.8 287 -999
2007-01-16 07:37:06 51°13.618 2°56.003 112.7 1.9 289 -999
2007-01-16 07:37:10 51°13.619 2°56 113.5 2.1 289 -999
2007-01-16 07:37:15 51°13.62 2°55.995 114.3 2.2 292 -999
2007-01-16 07:37:20 51°13.621 2°55.991 115.1 2.3 290 -999
2007-01-16 07:37:26 51°13.623 2°55.985 116.2 2.4 292 -999
2007-01-16 07:37:31 51°13.624 2°55.98 117.3 2.5 293 -999
2007-01-16 07:37:36 51°13.625 2°55.975 118.2 2.6 294 -999
2007-01-16 07:37:40 51°13.626 2°55.97 118.9 2.6 293 -999
2007-01-16 07:37:46 51°13.628 2°55.964 119.6 2.7 294 -999
2007-01-16 07:37:51 51°13.63 2°55.958 120.4 2.8 295 -999
2007-01-16 07:37:56 51°13.632 2°55.952 121.3 2.9 296 -999
2007-01-16 07:38:01 51°13.634 2°55.946 122.1 3 295 -999
2007-01-16 07:38:06 51°13.636 2°55.94 122.9 3.1 297 -999
2007-01-16 07:38:10 51°13.637 2°55.935 124.1 3.3 298 -999
2007-01-16 07:38:16 51°13.64 2°55.927 124.8 3.4 300 -999
2007-01-16 07:38:21 51°13.643 2°55.92 125.6 3.4 299 -999
2007-01-16 07:38:25 51°13.644 2°55.915 126.6 3.4 302 -999
2007-01-16 07:38:30 51°13.647 2°55.909 127 3.3 301 4.9
2007-01-16 07:38:36 51°13.65 2°55.901 127.4 3.4 303 -999
2007-01-16 07:38:41 51°13.653 2°55.895 127.7 3.5 303 4.8
2007-01-16 07:38:45 51°13.655 2°55.89 127.7 3.4 303 -999
2007-01-16 07:38:50 51°13.657 2°55.883 127.7 3.5 304 4.8
2007-01-16 07:38:55 51°13.66 2°55.877 127.8 3.5 305 -999
2007-01-16 07:39:01 51°13.664 2°55.869 128.3 3.6 305 -999
2007-01-16 07:39:06 51°13.667 2°55.862 128.4 3.7 306 -999
2007-01-16 07:39:10 51°13.669 2°55.857 128.4 3.7 306 -999
2007-01-16 07:39:16 51°13.673 2°55.849 128.1 3.7 307 -999
2007-01-16 07:39:21 51°13.676 2°55.843 127.6 3.7 307 -999
2007-01-16 07:39:26 51°13.679 2°55.836 127.3 3.7 307 -999
2007-01-16 07:39:31 51°13.682 2°55.83 126.9 3.6 307 -999
2007-01-16 07:39:36 51°13.685 2°55.823 126.4 3.6 306 -999
2007-01-16 07:39:40 51°13.687 2°55.818 125.9 3.7 306 -999
2007-01-16 07:39:46 51°13.691 2°55.81 125 3.7 305 -999
2007-01-16 07:39:50 51°13.693 2°55.805 123.4 3.7 304 -999
2007-01-16 07:39:55 51°13.696 2°55.798 121.5 3.6 302 -999
2007-01-16 07:40:01 51°13.699 2°55.79 119.4 3.5 301 -999
2007-01-16 07:40:05 51°13.701 2°55.784 117 3.5 299 -999
2007-01-16 07:40:10 51°13.703 2°55.778 114.8 3.4 297 4.6
2007-01-16 07:40:15 51°13.705 2°55.771 113.5 3.3 296 13.5
2007-01-16 07:40:20 51°13.707 2°55.764 111.4 3.2 292 -999
2007-01-16 07:40:25 51°13.708 2°55.758 108 3.1 289 14
2007-01-16 07:40:30 51°13.709 2°55.752 105.5 3 285 14.2
2007-01-16 07:40:35 51°13.71 2°55.745 103 2.9 283 13.7
2007-01-16 07:40:40 51°13.711 2°55.739 100.2 2.9 281 13.3
2007-01-16 07:40:45 51°13.711 2°55.733 98.3 2.7 280 13.1
2007-01-16 07:40:50 51°13.712 2°55.727 96.2 2.6 278 13.3
2007-01-16 07:40:55 51°13.713 2°55.722 95 2.4 279 12.9
2007-01-16 07:41:00 51°13.713 2°55.717 94.3 2.1 278 12.7
2007-01-16 07:41:05 51°13.713 2°55.713 93.4 1.8 277 13.2
2007-01-16 07:41:10 51°13.714 2°55.71 92 1.6 277 13.2
2007-01-16 07:41:15 51°13.714 2°55.707 90.5 1.4 275 12.9
2007-01-16 07:41:20 51°13.714 2°55.704 89.2 1.3 279 13
2007-01-16 07:41:25 51°13.715 2°55.701 88.1 1 283 12.9
2007-01-16 07:41:30 51°13.715 2°55.7 87 0.8 287 12.9
2007-01-16 07:41:35 51°13.715 2°55.698 85.6 0.6 293 13
2007-01-16 07:41:40 51°13.715 2°55.698 83.8 0.4 313 13
2007-01-16 07:41:45 51°13.716 2°55.698 81.9 0.3 2 13
2007-01-16 07:41:50 51°13.716 2°55.698 79.7 0.5 29 13.1
2007-01-16 07:41:55 51°13.717 2°55.699 77.2 0.6 43 13.2
2007-01-16 07:42:00 51°13.718 2°55.701 74.6 0.8 50 13
2007-01-16 07:42:05 51°13.718 2°55.702 71.7 0.9 54 13
2007-01-16 07:42:10 51°13.719 2°55.704 68.5 1.2 50 12.9
2007-01-16 07:42:15 51°13.721 2°55.706 65 1.4 47 13
2007-01-16 07:42:20 51°13.722 2°55.709 61.1 1.5 46 13
2007-01-16 07:42:26 51°13.724 2°55.711 56.8 1.5 42 12.5
2007-01-16 07:42:30 51°13.725 2°55.713 52.1 1.5 38 12.2
2007-01-16 07:42:35 51°13.726 2°55.715 48.1 1.4 39 12.2
2007-01-16 07:42:40 51°13.728 2°55.716 45.5 1.1 36 12.5
2007-01-16 07:42:45 51°13.729 2°55.718 43.5 0.8 35 12.4
2007-01-16 07:42:50 51°13.73 2°55.718 41.3 0.6 26 12.3
2007-01-16 07:42:55 51°13.73 2°55.718 39.5 0.3 22 12.2
2007-01-16 07:43:00 51°13.73 2°55.718 37.9 0.1 278 12.2
2007-01-16 07:43:05 51°13.73 2°55.718 37 0.4 225 12.1
2007-01-16 07:43:10 51°13.729 2°55.717 36.6 0.7 221 12.1
2007-01-16 07:43:15 51°13.728 2°55.715 36.2 0.9 218 12.4
2007-01-16 07:43:20 51°13.727 2°55.714 35.9 0.8 224 12.4
2007-01-16 07:43:25 51°13.726 2°55.713 35.6 0.8 218 12.4
2007-01-16 07:43:30 51°13.725 2°55.712 35.6 0.7 219 -999
2007-01-16 07:43:35 51°13.725 2°55.711 35.5 0.5 222 -999
2007-01-16 07:43:41 51°13.725 2°55.71 34.8 0.3 229 -999
2007-01-16 07:43:46 51°13.725 2°55.71 33.3 0.1 300 4.7
2007-01-16 07:43:50 51°13.725 2°55.71 32 0.4 12 4.6
2007-01-16 07:43:55 51°13.726 2°55.711 29.9 0.7 16 12.3
2007-01-16 07:44:00 51°13.727 2°55.711 26.3 1 12 4.6
2007-01-16 07:44:05 51°13.729 2°55.712 22.9 1.4 7 4.7
2007-01-16 07:44:10 51°13.731 2°55.712 17.8 1.7 2 4.6
2007-01-16 07:44:15 51°13.734 2°55.712 12.1 1.8 359 5.3
2007-01-16 07:44:20 51°13.737 2°55.711 5.8 2 354 11.9
2007-01-16 07:44:26 51°13.74 2°55.71 359.6 2.1 348 12.3
2007-01-16 07:44:30 51°13.742 2°55.709 353.6 2.4 342 11.8
2007-01-16 07:44:35 51°13.746 2°55.707 348.3 2.9 339 12
2007-01-16 07:44:40 51°13.75 2°55.704 343.7 3.3 336 11.9
2007-01-16 07:44:46 51°13.756 2°55.699 339.8 3.8 333 11.9
2007-01-16 07:44:50 51°13.76 2°55.696 337.4 4.2 332 12
2007-01-16 07:44:55 51°13.765 2°55.691 336.2 4.5 331 12
2007-01-16 07:45:00 51°13.772 2°55.686 335.9 4.9 332 12.1
2007-01-16 07:45:05 51°13.778 2°55.68 336 5.1 331 11.7
2007-01-16 07:45:10 51°13.784 2°55.674 336 5.5 332 11.8
2007-01-16 07:45:15 51°13.792 2°55.668 336.2 5.8 333 11.5
2007-01-16 07:45:20 51°13.799 2°55.663 336.7 6 334 11.8
2007-01-16 07:45:25 51°13.807 2°55.657 337.5 6.2 334 12.1
2007-01-16 07:45:30 51°13.815 2°55.651 338.3 6.3 335 12.3
2007-01-16 07:45:35 51°13.823 2°55.645 339 6.6 334 12.3
2007-01-16 07:45:40 51°13.831 2°55.638 339.1 6.7 336 12.1
2007-01-16 07:45:45 51°13.84 2°55.632 339.4 6.9 335 12.1
2007-01-16 07:45:50 51°13.849 2°55.626 339.8 6.2 337 12.2
2007-01-16 07:45:55 51°13.858 2°55.619 340.3 7.1 336 12.1
2007-01-16 07:46:00 51°13.867 2°55.613 340.4 7.3 336 12.3
2007-01-16 07:46:05 51°13.876 2°55.606 340.4 7.3 335 12.3
2007-01-16 07:46:10 51°13.886 2°55.599 339.9 7.4 335 12.4
2007-01-16 07:46:15 51°13.895 2°55.592 339.6 7.4 335 12.4
2007-01-16 07:46:20 51°13.904 2°55.584 339.3 7.5 334 12.4
2007-01-16 07:46:25 51°13.914 2°55.578 339 7.5 335 12.3
2007-01-16 07:46:30 51°13.923 2°55.571 339.1 7.6 335 12.3
2007-01-16 07:46:35 51°13.933 2°55.564 339.8 7.6 336 12.3
2007-01-16 07:46:40 51°13.942 2°55.557 340.4 7.6 336 12.3
2007-01-16 07:46:46 51°13.954 2°55.549 340.8 7.6 337 12.3
2007-01-16 07:46:50 51°13.962 2°55.543 341.2 7.7 337 12.3
2007-01-16 07:46:55 51°13.971 2°55.537 341.4 7.7 337 12.3
2007-01-16 07:47:00 51°13.981 2°55.53 341.4 7.7 337 12.3
2007-01-16 07:47:05 51°13.991 2°55.523 341.2 7.7 337 12.3
2007-01-16 07:47:10 51°14.001 2°55.517 340.9 7.7 337 12.3
2007-01-16 07:47:15 51°14.01 2°55.51 340.9 7.7 336 12.3
2007-01-16 07:47:20 51°14.02 2°55.503 340.9 7.8 336 12.3
2007-01-16 07:47:25 51°14.03 2°55.496 340.4 7.7 335 12.3
2007-01-16 07:47:30 51°14.039 2°55.488 339.6 7.7 335 12.3
2007-01-16 07:47:35 51°14.049 2°55.481 339.5 7.7 335 12.3
2007-01-16 07:47:40 51°14.059 2°55.474 340 7.7 335 12.3
2007-01-16 07:47:45 51°14.068 2°55.467 340.2 7.8 335 12.3
2007-01-16 07:47:50 51°14.078 2°55.46 339.8 7.8 335 12.3
2007-01-16 07:47:55 51°14.088 2°55.452 339.5 7.8 335 12.3
2007-01-16 07:48:00 51°14.097 2°55.445 339.5 7.8 335 12.3
2007-01-16 07:48:05 51°14.107 2°55.438 339.6 7.8 335 12.4
2007-01-16 07:48:10 51°14.117 2°55.431 339.7 7.8 334 12.3
2007-01-16 07:48:15 51°14.127 2°55.423 339 7.9 334 12.3
2007-01-16 07:48:20 51°14.136 2°55.416 338.5 7.8 334 12.3
2007-01-16 07:48:25 51°14.145 2°55.408 338.2 7.8 333 12.3
2007-01-16 07:48:30 51°14.155 2°55.4 337.5 7.8 332 12.3
2007-01-16 07:48:35 51°14.164 2°55.392 336.6 7.8 332 12.3
2007-01-16 07:48:40 51°14.173 2°55.383 335.8 7.9 330 12.4
2007-01-16 07:48:46 51°14.185 2°55.372 334.8 8.1 329 12.4
2007-01-16 07:48:50 51°14.193 2°55.364 333.8 8.3 327 12.4
2007-01-16 07:48:55 51°14.203 2°55.354 332.4 8.5 326 12.5
2007-01-16 07:49:00 51°14.213 2°55.342 330.4 8.7 324 12.5
2007-01-16 07:49:06 51°14.224 2°55.328 328.3 8.9 322 12.5
2007-01-16 07:49:10 51°14.232 2°55.318 327 9.2 321 12.5
2007-01-16 07:49:15 51°14.242 2°55.305 326.1 9.3 321 12.5
2007-01-16 07:49:20 51°14.252 2°55.291 325.5 9.5 320 12.5
2007-01-16 07:49:25 51°14.262 2°55.277 324.8 9.7 319 12.6
2007-01-16 07:49:30 51°14.273 2°55.263 323.8 9.8 318 12.5
2007-01-16 07:49:35 51°14.283 2°55.248 322.9 9.9 317 12.6
2007-01-16 07:49:40 51°14.293 2°55.232 321.6 10 316 12.6
2007-01-16 07:49:45 51°14.302 2°55.217 320.5 10.1 314 12.4
2007-01-16 07:49:50 51°14.312 2°55.2 319.3 10.1 313 12.5
2007-01-16 07:49:55 51°14.322 2°55.184 318.4 10.2 313 12.4
2007-01-16 07:50:00 51°14.331 2°55.167 317.7 10.1 312 11.9
2007-01-16 07:50:05 51°14.341 2°55.151 317.3 10.2 315 11.3
2007-01-16 07:50:10 51°14.351 2°55.135 318.1 10.4 316 10.9
2007-01-16 07:50:15 51°14.362 2°55.119 319.3 10.5 318 11.2
2007-01-16 07:50:20 51°14.373 2°55.104 320.5 10.7 319 11.3
2007-01-16 07:50:25 51°14.385 2°55.089 321.6 11 322 11.5
2007-01-16 07:50:30 51°14.398 2°55.074 324 11.2 325 11.8
2007-01-16 07:50:35 51°14.411 2°55.06 326.7 11.4 325 11.8
2007-01-16 07:50:40 51°14.424 2°55.046 327.6 11.6 326 11.7
2007-01-16 07:50:45 51°14.438 2°55.031 327.9 11.8 326 11.3
2007-01-16 07:50:50 51°14.451 2°55.017 327.8 12.1 327 11.5
2007-01-16 07:50:55 51°14.466 2°55.002 328.3 12.1 327 11.3
2007-01-16 07:51:00 51°14.48 2°54.988 328.7 12.1 329 11.3
2007-01-16 07:51:05 51°14.494 2°54.974 329.5 12.1 329 11.1
2007-01-16 07:51:10 51°14.509 2°54.961 330.5 12.1 330 11
2007-01-16 07:51:15 51°14.523 2°54.946 331.2 12.2 328 11
2007-01-16 07:51:20 51°14.538 2°54.932 330.3 12.3 327 11
2007-01-16 07:51:25 51°14.551 2°54.916 328.5 12.2 323 10.9
2007-01-16 07:51:30 51°14.564 2°54.899 325.8 12.1 320 10.9
2007-01-16 07:51:35 51°14.576 2°54.881 323.1 12.1 317 10.9
2007-01-16 07:51:40 51°14.588 2°54.861 320 12 314 10.8
2007-01-16 07:51:45 51°14.599 2°54.841 316.4 12 310 10.9
2007-01-16 07:51:50 51°14.608 2°54.821 313.2 11.8 306 10.7
2007-01-16 07:51:55 51°14.617 2°54.799 309.2 11.7 302 10.8
2007-01-16 07:52:00 51°14.624 2°54.776 304.8 11.6 297 10.8
2007-01-16 07:52:05 51°14.63 2°54.752 300.3 11.5 292 10.8
2007-01-16 07:52:10 51°14.635 2°54.728 295.8 11.5 288 10.9
2007-01-16 07:52:15 51°14.639 2°54.704 291.2 11.4 284 10.8
2007-01-16 07:52:20 51°14.641 2°54.679 286.7 11.3 279 11
2007-01-16 07:52:25 51°14.643 2°54.654 282.3 11.2 275 11
2007-01-16 07:52:30 51°14.643 2°54.63 277.9 11.1 270 10.9
2007-01-16 07:52:35 51°14.642 2°54.605 274.3 11.1 267 11
2007-01-16 07:52:40 51°14.64 2°54.581 269.1 11 261 11.1
2007-01-16 07:52:45 51°14.637 2°54.558 264.9 11 257 11.2
2007-01-16 07:52:50 51°14.632 2°54.534 260.4 11 253 11.3
2007-01-16 07:52:55 51°14.627 2°54.512 257.2 10.9 249 11.4
2007-01-16 07:53:00 51°14.62 2°54.49 252 10.9 244 11.5
2007-01-16 07:53:06 51°14.611 2°54.465 247.5 10.9 238 11.5
2007-01-16 07:53:10 51°14.604 2°54.45 243.1 10.8 234 11.5
2007-01-16 07:53:15 51°14.594 2°54.432 238.7 10.8 230 11.7
2007-01-16 07:53:20 51°14.583 2°54.415 235 10.8 225 12.1
2007-01-16 07:53:25 51°14.572 2°54.4 229.6 10.8 219 12.3
2007-01-16 07:53:30 51°14.56 2°54.386 225.3 10.8 215 12.4
2007-01-16 07:53:35 51°14.547 2°54.374 220.9 10.8 212 12.4
2007-01-16 07:53:40 51°14.533 2°54.362 216.4 10.9 208 12.5
2007-01-16 07:53:45 51°14.52 2°54.351 212.6 10.9 209 12.3
2007-01-16 07:53:50 51°14.507 2°54.338 212.6 11 215 12.4
2007-01-16 07:53:55 51°14.496 2°54.322 215.8 10.9 222 12.4
2007-01-16 07:54:00 51°14.486 2°54.304 222.7 10.8 228 12.1
2007-01-16 07:54:05 51°14.477 2°54.285 227.9 10.8 236 12.3
2007-01-16 07:54:10 51°14.469 2°54.264 236.2 10.9 240 12.5
2007-01-16 07:54:15 51°14.463 2°54.242 241.5 11.1 246 12
2007-01-16 07:54:20 51°14.457 2°54.219 246.3 11.1 248 11.5
2007-01-16 07:54:25 51°14.452 2°54.195 248.9 11.2 251 11.4
2007-01-16 07:54:30 51°14.447 2°54.171 251.9 11.4 253 11.3
2007-01-16 07:54:35 51°14.443 2°54.147 254.4 11.4 255 11.2
2007-01-16 07:54:40 51°14.439 2°54.122 255.7 11.6 255 11.2
2007-01-16 07:54:45 51°14.435 2°54.097 256.9 11.7 257 11.3
2007-01-16 07:54:50 51°14.431 2°54.072 257.6 11.8 256 11.2
2007-01-16 07:54:55 51°14.427 2°54.046 258 11.9 257 11.3
2007-01-16 07:55:00 51°14.423 2°54.021 258.3 11.9 256 11.3
2007-01-16 07:55:05 51°14.419 2°53.995 257.8 12 256 11.3
2007-01-16 07:55:10 51°14.414 2°53.97 257.8 12 255 11.3
2007-01-16 07:55:15 51°14.41 2°53.944 257.4 12 254 11.3
2007-01-16 07:55:20 51°14.405 2°53.919 256.9 12 254 11.3
2007-01-16 07:55:25 51°14.4 2°53.893 256.5 12 254 11.3
2007-01-16 07:55:30 51°14.396 2°53.868 256.4 12 253 11.4
2007-01-16 07:55:35 51°14.39 2°53.843 256.2 11.9 251 11.4
2007-01-16 07:55:40 51°14.383 2°53.819 254 11.8 246 11.4
2007-01-16 07:55:46 51°14.374 2°53.791 250.3 11.9 243 11.5
2007-01-16 07:55:50 51°14.368 2°53.773 245.8 11.8 241 11.4
2007-01-16 07:55:55 51°14.36 2°53.75 244.5 11.9 241 11.5
2007-01-16 07:56:00 51°14.352 2°53.726 243.8 11.9 243 11.5
2007-01-16 07:56:05 51°14.345 2°53.703 244.7 11.8 242 11.4
2007-01-16 07:56:10 51°14.337 2°53.68 246 11.8 243 11.5
2007-01-16 07:56:15 51°14.329 2°53.658 245.3 11.8 238 11.5
2007-01-16 07:56:20 51°14.32 2°53.636 242.5 11.8 237 11.4
2007-01-16 07:56:25 51°14.31 2°53.614 240.8 11.9 236 11.5
2007-01-16 07:56:30 51°14.3 2°53.592 239.2 12 234 11.5
2007-01-16 07:56:35 51°14.29 2°53.571 237.5 12.1 233 11.4
2007-01-16 07:56:40 51°14.28 2°53.55 236.7 12.1 232 11.4
2007-01-16 07:56:45 51°14.269 2°53.529 235.7 12.3 231 11.4
2007-01-16 07:56:50 51°14.259 2°53.507 235.1 12.3 232 11.5
2007-01-16 07:56:55 51°14.248 2°53.486 234.9 12.4 231 11.4
2007-01-16 07:57:00 51°14.237 2°53.464 234.9 12.5 232 11.4
2007-01-16 07:57:05 51°14.226 2°53.443 234.8 12.5 231 11.4
2007-01-16 07:57:10 51°14.216 2°53.421 234.7 12.4 232 11.6
2007-01-16 07:57:15 51°14.205 2°53.4 234.7 12.4 232 11.5
2007-01-16 07:57:20 51°14.194 2°53.378 235.1 12.5 232 11.5
2007-01-16 07:57:25 51°14.184 2°53.356 235 12.5 232 11.6
2007-01-16 07:57:30 51°14.173 2°53.335 235.1 12.4 232 11.6
2007-01-16 07:57:35 51°14.163 2°53.313 234.9 12.5 233 11.7
2007-01-16 07:57:40 51°14.152 2°53.291 235.1 12.5 232 11.6
2007-01-16 07:57:45 51°14.141 2°53.269 235.3 12.5 233 11.6
2007-01-16 07:57:50 51°14.131 2°53.247 235.4 12.6 232 11.6
2007-01-16 07:57:55 51°14.12 2°53.225 235.5 12.6 232 11.6
2007-01-16 07:58:00 51°14.109 2°53.203 235.4 12.6 233 11.7
2007-01-16 07:58:05 51°14.099 2°53.181 235.7 12.6 234 11.7
2007-01-16 07:58:10 51°14.088 2°53.159 236.1 12.6 233 11.8
2007-01-16 07:58:15 51°14.078 2°53.137 236.3 12.6 232 11.7
2007-01-16 07:58:20 51°14.067 2°53.114 235.8 12.6 234 11.9
2007-01-16 07:58:25 51°14.057 2°53.093 236.3 12.5 232 11.8
2007-01-16 07:58:30 51°14.047 2°53.07 235.8 12.6 233 11.9
2007-01-16 07:58:35 51°14.036 2°53.048 235.9 12.6 232 12
2007-01-16 07:58:40 51°14.025 2°53.026 235.9 12.5 233 11.8
2007-01-16 07:58:45 51°14.015 2°53.004 235.9 12.5 232 12
2007-01-16 07:58:50 51°14.004 2°52.982 235.8 12.5 233 11.9
2007-01-16 07:58:55 51°13.994 2°52.96 235.8 12.5 233 12
2007-01-16 07:59:00 51°13.983 2°52.938 236.2 12.6 232 12
2007-01-16 07:59:05 51°13.973 2°52.916 235.8 12.5 234 12
2007-01-16 07:59:10 51°13.963 2°52.894 236.1 12.5 233 12
2007-01-16 07:59:15 51°13.952 2°52.871 236.1 12.5 234 12
2007-01-16 07:59:20 51°13.942 2°52.849 236.2 12.5 233 12
2007-01-16 07:59:25 51°13.931 2°52.827 236.3 12.5 233 12
2007-01-16 07:59:30 51°13.921 2°52.805 236.3 12.6 233 12
2007-01-16 07:59:35 51°13.911 2°52.782 236.3 12.5 234 12
2007-01-16 07:59:40 51°13.9 2°52.76 236.3 12.5 233 12.1
2007-01-16 07:59:45 51°13.89 2°52.737 236.6 12.5 234 12
2007-01-16 07:59:50 51°13.879 2°52.715 236.6 12.5 233 12
2007-01-16 07:59:55 51°13.869 2°52.693 236.9 12.6 234 12
2007-01-16 08:00:00 51°13.859 2°52.67 236.9 12.6 234 12.1
2007-01-16 08:00:06 51°13.847 2°52.644 237.1 12.5 233 12.2
2007-01-16 08:00:10 51°13.838 2°52.626 236.7 12.6 233 12
2007-01-16 08:00:15 51°13.828 2°52.604 236.3 12.6 234 12.1
2007-01-16 08:00:20 51°13.818 2°52.581 236.6 12.6 234 12
2007-01-16 08:00:26 51°13.805 2°52.555 236.6 12.5 234 12
2007-01-16 08:00:30 51°13.797 2°52.537 236.8 12.5 233 12.1
2007-01-16 08:00:35 51°13.787 2°52.515 236.7 12.5 233 12.1
2007-01-16 08:00:40 51°13.776 2°52.493 236.6 12.6 234 12.2
2007-01-16 08:00:45 51°13.766 2°52.471 236.4 12.5 233 12.1
2007-01-16 08:00:50 51°13.755 2°52.449 236.4 12.6 233 12.2
2007-01-16 08:00:55 51°13.745 2°52.426 236.3 12.6 234 12.2
2007-01-16 08:01:00 51°13.735 2°52.404 236.8 12.5 234 12.1
2007-01-16 08:01:05 51°13.725 2°52.381 237.1 12.5 234 12.2
2007-01-16 08:01:10 51°13.715 2°52.359 237.1 12.5 235 12.2
2007-01-16 08:01:15 51°13.705 2°52.336 237.6 12.6 235 12.1
2007-01-16 08:01:20 51°13.695 2°52.313 238 12.5 236 12
2007-01-16 08:01:25 51°13.685 2°52.29 238.7 12.5 236 12.1
2007-01-16 08:01:30 51°13.675 2°52.267 239.2 12.6 236 12.2
2007-01-16 08:01:35 51°13.666 2°52.244 239 12.5 236 12.1
2007-01-16 08:01:40 51°13.656 2°52.221 239.1 12.5 236 12.2
2007-01-16 08:01:45 51°13.646 2°52.198 239.1 12.6 236 12.1
2007-01-16 08:01:50 51°13.636 2°52.175 238.8 12.5 236 12.2
2007-01-16 08:01:55 51°13.627 2°52.152 238.8 12.5 237 12.1
2007-01-16 08:02:00 51°13.617 2°52.13 238.9 12.5 236 12.2
2007-01-16 08:02:05 51°13.607 2°52.107 238.9 12.6 236 12.2
2007-01-16 08:02:10 51°13.597 2°52.084 238.8 12.5 236 12.1
2007-01-16 08:02:15 51°13.587 2°52.061 238.7 12.5 235 12.1
2007-01-16 08:02:20 51°13.578 2°52.038 238.6 12.5 236 12.1
2007-01-16 08:02:25 51°13.568 2°52.015 238.7 12.5 236 12.2
2007-01-16 08:02:30 51°13.559 2°51.992 239.1 12.5 237 12.2
2007-01-16 08:02:35 51°13.549 2°51.969 239.4 12.5 236 12.1
2007-01-16 08:02:40 51°13.54 2°51.946 239.5 12.5 238 12.2
2007-01-16 08:02:46 51°13.529 2°51.918 240.3 12.5 238 12.2
2007-01-16 08:02:50 51°13.521 2°51.899 240.9 12.5 239 12.2
2007-01-16 08:02:55 51°13.512 2°51.875 241 12.5 238 12.2
2007-01-16 08:03:00 51°13.503 2°51.852 241.3 12.4 239 12.3
2007-01-16 08:03:05 51°13.494 2°51.828 241.6 12.5 238 12.4
2007-01-16 08:03:10 51°13.485 2°51.805 241 12.5 238 12.3
2007-01-16 08:03:15 51°13.476 2°51.782 241 12.5 238 12.3
2007-01-16 08:03:20 51°13.467 2°51.758 241 12.5 239 12.3
2007-01-16 08:03:25 51°13.457 2°51.735 241.4 12.4 238 12.3
2007-01-16 08:03:30 51°13.448 2°51.711 241.1 12.5 238 12.3
2007-01-16 08:03:35 51°13.439 2°51.688 241.1 12.5 238 12.3
2007-01-16 08:03:40 51°13.43 2°51.665 240.9 12.5 238 12.3
2007-01-16 08:03:45 51°13.421 2°51.641 240.7 12.5 239 12.2
2007-01-16 08:03:50 51°13.412 2°51.618 241 12.5 238 12.3
2007-01-16 08:03:55 51°13.402 2°51.594 241.1 12.5 238 12.4
2007-01-16 08:04:00 51°13.393 2°51.571 241 12.5 238 12.2
2007-01-16 08:04:05 51°13.384 2°51.548 241.2 12.5 238 12.4
2007-01-16 08:04:10 51°13.375 2°51.524 240.8 12.5 238 12.3
2007-01-16 08:04:15 51°13.366 2°51.501 240.9 12.5 238 12.3
2007-01-16 08:04:20 51°13.357 2°51.477 241 12.5 238 12.3
2007-01-16 08:04:26 51°13.346 2°51.449 241.1 12.5 238 12.3
2007-01-16 08:04:30 51°13.338 2°51.431 240.8 12.5 239 12.3
2007-01-16 08:04:35 51°13.329 2°51.407 241 12.4 239 12.2
2007-01-16 08:04:40 51°13.321 2°51.383 241.6 12.5 239 12.4
2007-01-16 08:04:46 51°13.31 2°51.354 242 12.5 240 12.4
2007-01-16 08:04:50 51°13.303 2°51.336 242.6 12.5 240 12.3
2007-01-16 08:04:55 51°13.295 2°51.312 242.8 12.5 240 12.4
2007-01-16 08:05:00 51°13.286 2°51.288 243.1 12.5 240 12.4
2007-01-16 08:05:06 51°13.276 2°51.259 243 12.5 240 12.3
2007-01-16 08:05:10 51°13.269 2°51.24 243 12.5 240 12.3
2007-01-16 08:05:15 51°13.26 2°51.216 243.1 12.4 240 12.5
2007-01-16 08:05:20 51°13.252 2°51.192 243.2 12.5 240 12.4
2007-01-16 08:05:25 51°13.244 2°51.168 243.2 12.5 241 12.4
2007-01-16 08:05:30 51°13.235 2°51.144 243.4 12.5 241 12.5
2007-01-16 08:05:35 51°13.227 2°51.12 243.6 12.5 241 12.4
2007-01-16 08:05:40 51°13.218 2°51.096 243.8 12.4 241 12.5
2007-01-16 08:05:45 51°13.21 2°51.072 243.8 12.5 240 12.5
2007-01-16 08:05:50 51°13.201 2°51.048 243.3 12.5 241 12.5
2007-01-16 08:05:55 51°13.192 2°51.024 243.3 12.5 240 12.6
2007-01-16 08:06:00 51°13.184 2°51 243.2 12.5 240 12.7
2007-01-16 08:06:05 51°13.175 2°50.976 243.1 12.5 240 12.5
2007-01-16 08:06:10 51°13.167 2°50.952 243 12.5 240 12.5
2007-01-16 08:06:15 51°13.158 2°50.928 243.1 12.5 240 12.6
2007-01-16 08:06:20 51°13.149 2°50.904 243.1 12.5 241 12.6
2007-01-16 08:06:25 51°13.141 2°50.88 243.2 12.5 241 12.7
2007-01-16 08:06:30 51°13.132 2°50.856 243.4 12.5 241 12.6
2007-01-16 08:06:35 51°13.124 2°50.832 243.7 12.5 241 12.7
2007-01-16 08:06:40 51°13.116 2°50.808 243.8 12.5 241 12.6
2007-01-16 08:06:45 51°13.107 2°50.783 243.6 12.5 241 12.6
2007-01-16 08:06:50 51°13.099 2°50.759 243.4 12.5 241 12.6
2007-01-16 08:06:55 51°13.09 2°50.735 243.7 12.5 241 12.7
2007-01-16 08:07:00 51°13.082 2°50.711 243.8 12.5 241 12.6
2007-01-16 08:07:06 51°13.072 2°50.682 244.1 12.5 241 12.7
2007-01-16 08:07:10 51°13.065 2°50.663 244 12.5 240 12.6
2007-01-16 08:07:15 51°13.057 2°50.639 243.5 12.4 241 12.7
2007-01-16 08:07:20 51°13.048 2°50.615 243.7 12.4 240 12.8
2007-01-16 08:07:26 51°13.038 2°50.586 243.2 12.4 241 12.7
2007-01-16 08:07:30 51°13.031 2°50.567 243.4 12.5 240 12.7
2007-01-16 08:07:35 51°13.023 2°50.543 243.4 12.5 240 12.8
2007-01-16 08:07:40 51°13.014 2°50.519 243.2 12.5 240 12.8
2007-01-16 08:07:45 51°13.005 2°50.495 243.2 12.5 241 12.7
2007-01-16 08:07:50 51°12.997 2°50.471 243.1 12.5 240 12.8
2007-01-16 08:07:55 51°12.989 2°50.447 243.2 12.5 241 12.7
2007-01-16 08:08:00 51°12.98 2°50.423 243.5 12.5 240 12.8
2007-01-16 08:08:05 51°12.972 2°50.399 243.2 12.5 241 12.9
2007-01-16 08:08:10 51°12.963 2°50.375 243.6 12.5 240 13
2007-01-16 08:08:15 51°12.954 2°50.351 243.3 12.5 241 12.8
2007-01-16 08:08:20 51°12.946 2°50.327 243.3 12.5 240 12.8
2007-01-16 08:08:25 51°12.937 2°50.303 243.6 12.5 241 12.9
2007-01-16 08:08:30 51°12.929 2°50.279 243.8 12.5 241 12.9
2007-01-16 08:08:35 51°12.921 2°50.255 243.8 12.5 241 12.8
2007-01-16 08:08:40 51°12.912 2°50.23 243.5 12.5 241 12.9
2007-01-16 08:08:45 51°12.904 2°50.206 243.6 12.5 241 12.9
2007-01-16 08:08:50 51°12.895 2°50.182 243.6 12.5 240 13
2007-01-16 08:08:55 51°12.887 2°50.158 243.2 12.5 240 13
2007-01-16 08:09:00 51°12.878 2°50.134 243.2 12.5 240 12.9
2007-01-16 08:09:06 51°12.868 2°50.106 243 12.5 240 13
2007-01-16 08:09:10 51°12.861 2°50.087 242.8 12.5 240 12.9
2007-01-16 08:09:15 51°12.852 2°50.063 242.9 12.5 240 13
2007-01-16 08:09:20 51°12.844 2°50.039 243.1 12.5 240 12.9
2007-01-16 08:09:25 51°12.835 2°50.015 243.1 12.5 240 13
2007-01-16 08:09:30 51°12.826 2°49.991 243.1 12.4 240 12.9
2007-01-16 08:09:35 51°12.818 2°49.967 242.9 12.4 240 13
2007-01-16 08:09:40 51°12.809 2°49.943 242.9 12.5 240 13
2007-01-16 08:09:45 51°12.801 2°49.919 243.1 12.4 241 13
2007-01-16 08:09:50 51°12.792 2°49.895 243.2 12.5 240 13
2007-01-16 08:09:55 51°12.784 2°49.871 243.5 12.5 241 13.1
2007-01-16 08:10:00 51°12.775 2°49.847 243.6 12.5 240 12.9
2007-01-16 08:10:05 51°12.767 2°49.823 243.3 12.5 241 13
2007-01-16 08:10:10 51°12.758 2°49.799 243.4 12.4 241 13.1
2007-01-16 08:10:15 51°12.75 2°49.775 243.6 12.5 241 13.1
2007-01-16 08:10:20 51°12.741 2°49.751 243.3 12.5 240 13.1
2007-01-16 08:10:25 51°12.732 2°49.727 243.3 12.4 240 13
2007-01-16 08:10:30 51°12.724 2°49.703 243.3 12.4 241 13
2007-01-16 08:10:35 51°12.716 2°49.68 243.4 12.5 240 13.1
2007-01-16 08:10:40 51°12.707 2°49.656 243.5 12.4 241 13.1
2007-01-16 08:10:45 51°12.699 2°49.632 243.4 12.5 241 13.1
2007-01-16 08:10:50 51°12.69 2°49.608 243.5 12.4 241 13
2007-01-16 08:10:55 51°12.682 2°49.584 243.8 12.4 240 13.2
2007-01-16 08:11:00 51°12.673 2°49.56 243.2 12.5 241 13.1
2007-01-16 08:11:05 51°12.665 2°49.536 243.3 12.5 241 13.1
2007-01-16 08:11:10 51°12.656 2°49.512 243.5 12.5 240 13.1
2007-01-16 08:11:15 51°12.648 2°49.488 243.2 12.5 241 13.1
2007-01-16 08:11:20 51°12.639 2°49.464 243.3 12.5 240 13.3
2007-01-16 08:11:25 51°12.631 2°49.44 243.1 12.5 241 13.3
2007-01-16 08:11:30 51°12.622 2°49.416 243.1 12.5 240 13.3
2007-01-16 08:11:35 51°12.614 2°49.392 243.1 12.5 241 13.2
2007-01-16 08:11:40 51°12.605 2°49.368 243.3 12.5 240 13.2
2007-01-16 08:11:46 51°12.595 2°49.339 243.3 12.5 241 13.3
2007-01-16 08:11:50 51°12.588 2°49.32 243.4 12.5 240 13.2
2007-01-16 08:11:55 51°12.58 2°49.296 243.3 12.5 241 13.2
2007-01-16 08:12:00 51°12.572 2°49.272 243.4 12.5 241 13.2
2007-01-16 08:12:05 51°12.564 2°49.248 243.6 12.5 241 13.2
2007-01-16 08:12:10 51°12.555 2°49.224 243.7 12.4 240 13.3
2007-01-16 08:12:15 51°12.547 2°49.2 243.2 12.4 241 13.2
2007-01-16 08:12:20 51°12.538 2°49.176 243.4 12.4 240 13.2
2007-01-16 08:12:25 51°12.53 2°49.152 243.4 12.4 241 13.3
2007-01-16 08:12:30 51°12.521 2°49.129 243.2 12.4 240 13.2
2007-01-16 08:12:35 51°12.513 2°49.105 242.7 12.4 241 13.3
2007-01-16 08:12:40 51°12.504 2°49.081 242.9 12.4 241 13.3
2007-01-16 08:12:45 51°12.496 2°49.057 243.1 12.4 240 13.3
2007-01-16 08:12:50 51°12.487 2°49.033 243 12.4 240 13.3
2007-01-16 08:12:55 51°12.479 2°49.009 243 12.4 240 13.3
2007-01-16 08:13:00 51°12.47 2°48.986 243.1 12.4 240 13.2
2007-01-16 08:13:05 51°12.462 2°48.962 243 12.4 240 13.3
2007-01-16 08:13:10 51°12.453 2°48.938 242.8 12.4 241 13.2
2007-01-16 08:13:15 51°12.444 2°48.914 242.9 12.4 240 13.2
2007-01-16 08:13:20 51°12.436 2°48.891 243.1 12.4 240 13.3
2007-01-16 08:13:25 51°12.427 2°48.867 243 12.4 240 13.3
2007-01-16 08:13:30 51°12.419 2°48.843 243 12.4 240 13.1
2007-01-16 08:13:35 51°12.41 2°48.819 242.6 12.4 241 13.3
2007-01-16 08:13:40 51°12.402 2°48.795 243.1 12.4 240 13.3
2007-01-16 08:13:45 51°12.393 2°48.771 243.1 12.4 241 13.2
2007-01-16 08:13:50 51°12.385 2°48.748 243.1 12.4 240 13.2
2007-01-16 08:13:55 51°12.376 2°48.724 243.3 12.4 241 13.2
2007-01-16 08:14:00 51°12.368 2°48.7 243.2 12.4 241 13.3
2007-01-16 08:14:06 51°12.358 2°48.671 243.5 12.5 241 13.3
2007-01-16 08:14:10 51°12.351 2°48.652 243.5 12.4 241 13.3
2007-01-16 08:14:15 51°12.343 2°48.628 243.7 12.4 241 13.4
2007-01-16 08:14:20 51°12.335 2°48.604 244.1 12.4 241 13.3
2007-01-16 08:14:26 51°12.325 2°48.575 243.8 12.4 241 13.3
2007-01-16 08:14:30 51°12.318 2°48.556 243.7 12.4 241 13.4
2007-01-16 08:14:35 51°12.31 2°48.532 243.3 12.4 241 13.5
2007-01-16 08:14:40 51°12.301 2°48.508 243.5 12.4 240 13.3
2007-01-16 08:14:45 51°12.293 2°48.484 243.2 12.4 241 13.4
2007-01-16 08:14:50 51°12.284 2°48.46 243.2 12.4 241 13.3
2007-01-16 08:14:55 51°12.276 2°48.436 243.3 12.4 242 13.4
2007-01-16 08:15:00 51°12.268 2°48.412 243.5 12.4 243 13.4
2007-01-16 08:15:05 51°12.26 2°48.387 244.5 12.5 243 13.4
2007-01-16 08:15:10 51°12.253 2°48.363 245.1 12.4 244 13.4
2007-01-16 08:15:15 51°12.245 2°48.338 246 12.4 244 13.4
2007-01-16 08:15:20 51°12.237 2°48.314 246.3 12.5 244 13.4
2007-01-16 08:15:25 51°12.23 2°48.289 246.3 12.4 244 13.4
2007-01-16 08:15:30 51°12.222 2°48.264 246.7 12.4 244 13.5
2007-01-16 08:15:35 51°12.215 2°48.239 246.3 12.5 244 13.5
2007-01-16 08:15:40 51°12.207 2°48.215 246.2 12.4 244 13.4
2007-01-16 08:15:45 51°12.2 2°48.19 246.5 12.4 244 13.5
2007-01-16 08:15:50 51°12.192 2°48.165 246.1 12.4 244 13.4
2007-01-16 08:15:55 51°12.184 2°48.141 246.1 12.4 244 13.5
2007-01-16 08:16:00 51°12.177 2°48.116 246.1 12.4 244 13.5
2007-01-16 08:16:06 51°12.168 2°48.087 246.2 12.4 244 13.5
2007-01-16 08:16:10 51°12.162 2°48.067 246.2 12.4 245 13.7
2007-01-16 08:16:15 51°12.155 2°48.042 246.5 12.4 244 13.5
2007-01-16 08:16:20 51°12.147 2°48.018 246.6 12.4 244 13.6
2007-01-16 08:16:26 51°12.138 2°47.988 246.5 12.4 243 13.6
2007-01-16 08:16:30 51°12.132 2°47.968 246.2 12.4 244 13.6
2007-01-16 08:16:35 51°12.125 2°47.944 246.2 12.4 244 13.6
2007-01-16 08:16:40 51°12.117 2°47.919 246.3 12.4 245 13.6
2007-01-16 08:16:45 51°12.11 2°47.895 246.6 12.4 244 13.6
2007-01-16 08:16:50 51°12.102 2°47.87 246.6 12.4 244 13.7
2007-01-16 08:16:55 51°12.095 2°47.846 246.5 12.4 244 13.6
2007-01-16 08:17:00 51°12.087 2°47.821 246 12.4 245 13.6
2007-01-16 08:17:05 51°12.08 2°47.796 246.4 12.3 244 13.6
2007-01-16 08:17:10 51°12.072 2°47.772 246.5 12.4 245 13.7
2007-01-16 08:17:15 51°12.065 2°47.747 246.7 12.4 244 13.6
2007-01-16 08:17:20 51°12.057 2°47.722 246.7 12.4 244 13.7
2007-01-16 08:17:25 51°12.05 2°47.698 246.7 12.4 244 13.6
2007-01-16 08:17:30 51°12.042 2°47.673 246.3 12.4 244 13.7
2007-01-16 08:17:35 51°12.035 2°47.648 246.4 12.3 244 13.7
2007-01-16 08:17:40 51°12.027 2°47.624 246.3 12.4 243 13.6
2007-01-16 08:17:45 51°12.02 2°47.599 246 12.4 243 13.8
2007-01-16 08:17:50 51°12.012 2°47.575 246 12.3 244 13.6
2007-01-16 08:17:55 51°12.004 2°47.55 246 12.4 244 13.7
2007-01-16 08:18:00 51°11.997 2°47.526 246.4 12.4 246 13.8
2007-01-16 08:18:05 51°11.99 2°47.5 247.3 12.4 246 13.7
2007-01-16 08:18:10 51°11.983 2°47.475 247.8 12.4 246 13.7
2007-01-16 08:18:15 51°11.976 2°47.45 248.2 12.4 247 13.8
2007-01-16 08:18:20 51°11.969 2°47.425 248.8 12.5 247 13.7
2007-01-16 08:18:25 51°11.962 2°47.4 248.8 12.4 246 13.8
2007-01-16 08:18:30 51°11.955 2°47.375 248.8 12.5 246 13.7
2007-01-16 08:18:35 51°11.949 2°47.35 248.5 12.4 246 13.8
2007-01-16 08:18:40 51°11.941 2°47.325 248.6 12.4 246 13.9
2007-01-16 08:18:46 51°11.933 2°47.294 248.5 12.5 246 13.9
2007-01-16 08:18:50 51°11.928 2°47.274 248.3 12.4 246 13.8
2007-01-16 08:18:55 51°11.921 2°47.249 248.3 12.4 246 13.8
2007-01-16 08:19:00 51°11.914 2°47.224 248.5 12.4 246 13.9
2007-01-16 08:19:05 51°11.907 2°47.199 248.5 12.4 247 13.8
2007-01-16 08:19:10 51°11.9 2°47.174 248.9 12.4 246 13.9
2007-01-16 08:19:15 51°11.893 2°47.149 248.6 12.5 246 13.9
2007-01-16 08:19:20 51°11.886 2°47.124 248.3 12.4 246 13.8
2007-01-16 08:19:25 51°11.879 2°47.099 248.6 12.4 246 13.8
2007-01-16 08:19:30 51°11.872 2°47.074 248.5 12.5 246 13.8
2007-01-16 08:19:35 51°11.865 2°47.048 248.2 12.4 246 13.9
2007-01-16 08:19:40 51°11.858 2°47.023 248.5 12.4 246 13.8
2007-01-16 08:19:45 51°11.851 2°46.998 248.6 12.5 246 13.9
2007-01-16 08:19:50 51°11.844 2°46.973 248.5 12.4 246 13.9
2007-01-16 08:19:55 51°11.837 2°46.948 248.2 12.4 246 13.9
2007-01-16 08:20:00 51°11.83 2°46.923 248.2 12.4 246 13.9
2007-01-16 08:20:05 51°11.823 2°46.898 248.3 12.5 246 13.9
2007-01-16 08:20:10 51°11.816 2°46.873 248.3 12.4 246 13.9
2007-01-16 08:20:15 51°11.809 2°46.848 248.4 12.4 246 13.9
2007-01-16 08:20:20 51°11.802 2°46.822 248.5 12.4 246 14
2007-01-16 08:20:26 51°11.794 2°46.792 248.3 12.5 246 13.9
2007-01-16 08:20:30 51°11.789 2°46.772 248.2 12.4 246 14.1
2007-01-16 08:20:35 51°11.782 2°46.747 248.4 12.4 246 14.1
2007-01-16 08:20:40 51°11.775 2°46.722 248.2 12.5 246 14.1
2007-01-16 08:20:46 51°11.766 2°46.692 248.2 12.4 246 14.1
2007-01-16 08:20:50 51°11.76 2°46.672 248.2 12.4 245 14.1
2007-01-16 08:20:55 51°11.753 2°46.647 247.6 12.4 246 14.1
2007-01-16 08:21:00 51°11.746 2°46.622 248.1 12.3 246 14.1
2007-01-16 08:21:05 51°11.739 2°46.597 248.4 12.4 246 14.2
2007-01-16 08:21:10 51°11.732 2°46.572 248.3 12.4 246 14.1
2007-01-16 08:21:15 51°11.726 2°46.547 248.2 12.4 246 14.1
2007-01-16 08:21:20 51°11.718 2°46.522 248.3 12.4 245 14.1
2007-01-16 08:21:25 51°11.712 2°46.497 248.1 12.4 246 14.2
2007-01-16 08:21:30 51°11.704 2°46.472 247.8 12.4 245 14.2
2007-01-16 08:21:35 51°11.697 2°46.447 247.9 12.4 246 14.1
2007-01-16 08:21:40 51°11.69 2°46.422 248 12.4 246 14.1
2007-01-16 08:21:45 51°11.683 2°46.397 248.3 12.4 246 14.2
2007-01-16 08:21:50 51°11.676 2°46.372 248.2 12.3 246 14.2
2007-01-16 08:21:55 51°11.669 2°46.347 248.2 12.3 246 14.3
2007-01-16 08:22:00 51°11.662 2°46.322 248.1 12.4 246 14.3
2007-01-16 08:22:05 51°11.656 2°46.297 248.2 12.3 246 14.2
2007-01-16 08:22:10 51°11.649 2°46.272 248.5 12.4 246 14.2
2007-01-16 08:22:15 51°11.642 2°46.247 248.5 12.4 247 14.2
2007-01-16 08:22:20 51°11.635 2°46.222 248.7 12.4 246 14.2
2007-01-16 08:22:25 51°11.628 2°46.197 248.9 12.4 247 14.2
2007-01-16 08:22:30 51°11.621 2°46.172 248.7 12.4 246 14.2
2007-01-16 08:22:35 51°11.614 2°46.147 248.7 12.4 246 14.1
2007-01-16 08:22:40 51°11.608 2°46.122 248.7 12.4 247 14.2
2007-01-16 08:22:45 51°11.601 2°46.097 248.7 12.3 246 14.2
2007-01-16 08:22:50 51°11.594 2°46.072 248.7 12.3 247 14.2
2007-01-16 08:22:55 51°11.587 2°46.047 248.7 12.3 246 14.1
2007-01-16 08:23:00 51°11.58 2°46.022 248.4 12.3 247 14.2
2007-01-16 08:23:06 51°11.572 2°45.992 248.5 12.4 246 14.2
2007-01-16 08:23:10 51°11.566 2°45.972 248.2 12.4 247 14.2
2007-01-16 08:23:15 51°11.56 2°45.947 248.6 12.4 246 14
2007-01-16 08:23:20 51°11.553 2°45.922 248.7 12.3 247 14.1
2007-01-16 08:23:26 51°11.545 2°45.892 248.8 12.4 247 14.1
2007-01-16 08:23:30 51°11.539 2°45.872 249 12.4 247 14.1
2007-01-16 08:23:35 51°11.532 2°45.847 248.8 12.4 246 14
2007-01-16 08:23:40 51°11.525 2°45.822 248.7 12.3 246 14.1
2007-01-16 08:23:45 51°11.519 2°45.798 248.7 12.3 246 14.1
2007-01-16 08:23:50 51°11.512 2°45.773 248.7 12.4 246 14.2
2007-01-16 08:23:55 51°11.505 2°45.748 248.5 12.4 246 14.1
2007-01-16 08:24:00 51°11.498 2°45.723 248.3 12.4 246 14.1
2007-01-16 08:24:05 51°11.491 2°45.698 248.2 12.3 246 14
2007-01-16 08:24:10 51°11.484 2°45.673 248.3 12.3 246 14.1
2007-01-16 08:24:15 51°11.477 2°45.648 248.3 12.3 246 14.1
2007-01-16 08:24:20 51°11.47 2°45.623 248.3 12.3 247 14.2
2007-01-16 08:24:25 51°11.463 2°45.599 248.7 12.3 246 14.1
2007-01-16 08:24:30 51°11.456 2°45.573 248.2 12.3 247 14
2007-01-16 08:24:35 51°11.449 2°45.549 248.4 12.3 246 14
2007-01-16 08:24:40 51°11.442 2°45.524 248.5 12.3 246 14.2
2007-01-16 08:24:46 51°11.434 2°45.494 248.1 12.3 246 14
2007-01-16 08:24:50 51°11.429 2°45.474 248.2 12.3 246 14
2007-01-16 08:24:55 51°11.422 2°45.45 248.4 12.3 246 14.1
2007-01-16 08:25:00 51°11.415 2°45.425 248.2 12.3 246 14.1
2007-01-16 08:25:06 51°11.406 2°45.395 248.1 12.4 246 14
2007-01-16 08:25:10 51°11.4 2°45.375 248 12.3 245 14
2007-01-16 08:25:15 51°11.393 2°45.35 247.7 12.3 246 14
2007-01-16 08:25:20 51°11.386 2°45.326 248 12.3 246 14
2007-01-16 08:25:26 51°11.378 2°45.296 248.1 12.3 246 13.9
2007-01-16 08:25:30 51°11.373 2°45.276 248.2 12.3 247 13.9
2007-01-16 08:25:35 51°11.366 2°45.251 248.5 12.3 246 14
2007-01-16 08:25:40 51°11.359 2°45.226 248.6 12.3 246 14
2007-01-16 08:25:45 51°11.352 2°45.201 248.5 12.3 245 14
2007-01-16 08:25:50 51°11.345 2°45.176 248.3 12.2 246 13.8
2007-01-16 08:25:55 51°11.338 2°45.152 248.1 12.3 246 14
2007-01-16 08:26:00 51°11.331 2°45.127 248.1 12.3 246 14
2007-01-16 08:26:05 51°11.324 2°45.102 248.2 12.3 246 14
2007-01-16 08:26:10 51°11.317 2°45.077 248.3 12.3 246 13.9
2007-01-16 08:26:15 51°11.31 2°45.052 248.4 12.3 246 14
2007-01-16 08:26:20 51°11.303 2°45.027 248.3 12.3 246 13.9
2007-01-16 08:26:25 51°11.296 2°45.003 248.3 12.3 246 13.9
2007-01-16 08:26:30 51°11.289 2°44.978 248.3 12.3 246 13.9
2007-01-16 08:26:35 51°11.282 2°44.953 248.2 12.3 246 13.9
2007-01-16 08:26:40 51°11.276 2°44.929 248.2 12.3 246 13.8
2007-01-16 08:26:45 51°11.269 2°44.904 248.2 12.3 246 13.9
2007-01-16 08:26:50 51°11.262 2°44.879 248.1 12.3 246 13.8
2007-01-16 08:26:55 51°11.255 2°44.854 248 12.3 247 13.8
2007-01-16 08:27:00 51°11.248 2°44.83 248.2 12.3 246 13.9
2007-01-16 08:27:05 51°11.241 2°44.805 248.4 12.2 247 13.9
2007-01-16 08:27:10 51°11.234 2°44.78 248.6 12.3 246 13.9
2007-01-16 08:27:15 51°11.228 2°44.755 248.6 12.3 247 13.8
2007-01-16 08:27:20 51°11.221 2°44.731 248.4 12.3 246 13.8
2007-01-16 08:27:26 51°11.212 2°44.701 248.6 12.3 246 13.8
2007-01-16 08:27:30 51°11.207 2°44.681 248.3 12.3 246 13.8
2007-01-16 08:27:35 51°11.2 2°44.656 248.3 12.3 246 13.7
2007-01-16 08:27:40 51°11.193 2°44.632 248.3 12.2 247 13.8
2007-01-16 08:27:46 51°11.185 2°44.602 248.5 12.3 246 13.8
2007-01-16 08:27:50 51°11.179 2°44.582 248.3 12.3 246 13.8
2007-01-16 08:27:55 51°11.173 2°44.557 248.6 12.2 246 13.7
2007-01-16 08:28:00 51°11.166 2°44.533 248.6 12.2 246 13.7
2007-01-16 08:28:06 51°11.158 2°44.503 248.4 12.3 247 13.7
2007-01-16 08:28:10 51°11.152 2°44.483 248.3 12.2 246 13.7
2007-01-16 08:28:15 51°11.145 2°44.459 248.7 12.2 246 13.7
2007-01-16 08:28:20 51°11.139 2°44.434 248.3 12.2 246 13.7
2007-01-16 08:28:25 51°11.131 2°44.409 248.2 12.3 246 13.6
2007-01-16 08:28:30 51°11.125 2°44.384 248.2 12.3 246 13.7
2007-01-16 08:28:35 51°11.118 2°44.36 248.2 12.3 246 13.6
2007-01-16 08:28:40 51°11.111 2°44.335 248 12.3 245 13.6
2007-01-16 08:28:45 51°11.104 2°44.31 247.6 12.3 246 13.6
2007-01-16 08:28:50 51°11.097 2°44.286 247.6 12.3 246 13.6
2007-01-16 08:28:55 51°11.09 2°44.261 248.1 12.3 246 13.6
2007-01-16 08:29:00 51°11.083 2°44.236 248.2 12.3 246 13.5
2007-01-16 08:29:06 51°11.075 2°44.206 248.4 12.2 246 13.5
2007-01-16 08:29:10 51°11.07 2°44.187 248.5 12.3 246 13.6
2007-01-16 08:29:15 51°11.063 2°44.162 248.5 12.3 247 13.6
2007-01-16 08:29:20 51°11.056 2°44.137 248.4 12.3 247 13.6
2007-01-16 08:29:25 51°11.049 2°44.112 248.6 12.3 247 13.5
2007-01-16 08:29:30 51°11.043 2°44.087 248.6 12.2 247 13.6
2007-01-16 08:29:35 51°11.036 2°44.063 248.6 12.2 246 13.5
2007-01-16 08:29:40 51°11.029 2°44.038 248.4 12.3 247 13.6
2007-01-16 08:29:45 51°11.022 2°44.013 248.5 12.2 247 13.6
2007-01-16 08:29:50 51°11.015 2°43.988 248.6 12.3 246 13.6
2007-01-16 08:29:55 51°11.008 2°43.963 248.6 12.3 247 13.5
2007-01-16 08:30:00 51°11.002 2°43.938 248.6 12.3 247 13.5
2007-01-16 08:30:06 51°10.994 2°43.909 248.8 12.3 246 13.5
2007-01-16 08:30:10 51°10.988 2°43.889 248.4 12.2 247 13.5
2007-01-16 08:30:15 51°10.981 2°43.864 248.4 12.3 246 13.6
2007-01-16 08:30:20 51°10.974 2°43.839 248.5 12.3 247 13.5
2007-01-16 08:30:25 51°10.968 2°43.815 248.6 12.3 246 13.5
2007-01-16 08:30:30 51°10.961 2°43.79 248.2 12.3 246 13.5
2007-01-16 08:30:35 51°10.953 2°43.765 248.1 12.3 245 13.5
2007-01-16 08:30:40 51°10.947 2°43.741 247.9 12.3 246 13.4
2007-01-16 08:30:45 51°10.94 2°43.716 247.9 12.2 246 13.5
2007-01-16 08:30:51 51°10.932 2°43.686 248.2 12.3 247 13.4
2007-01-16 08:30:55 51°10.926 2°43.666 248.5 12.3 246 13.4
2007-01-16 08:31:00 51°10.919 2°43.642 248.5 12.3 246 13.4
2007-01-16 08:31:05 51°10.912 2°43.617 248.2 12.2 246 13.4
2007-01-16 08:31:10 51°10.905 2°43.592 248 12.3 246 13.4
2007-01-16 08:31:15 51°10.898 2°43.568 248 12.3 246 13.4
2007-01-16 08:31:20 51°10.891 2°43.543 248.2 12.3 246 13.3
2007-01-16 08:31:25 51°10.884 2°43.518 248.3 12.3 246 13.4
2007-01-16 08:31:30 51°10.878 2°43.493 248.4 12.3 247 13.3
2007-01-16 08:31:36 51°10.869 2°43.463 248.7 12.3 246 13.3
2007-01-16 08:31:40 51°10.864 2°43.443 248.5 12.3 246 13.3
2007-01-16 08:31:46 51°10.856 2°43.414 248.4 12.3 246 13.3
2007-01-16 08:31:50 51°10.85 2°43.394 248.3 12.3 245 13.4
2007-01-16 08:31:55 51°10.843 2°43.369 248.1 12.2 246 13.2
2007-01-16 08:32:00 51°10.836 2°43.345 248 12.3 246 13.3
2007-01-16 08:32:06 51°10.828 2°43.315 248 12.3 247 13.2
2007-01-16 08:32:10 51°10.822 2°43.295 248.3 12.3 246 13.3
2007-01-16 08:32:15 51°10.815 2°43.27 248.4 12.3 246 13.2
2007-01-16 08:32:20 51°10.808 2°43.246 248.5 12.3 246 13.2
2007-01-16 08:32:26 51°10.8 2°43.216 248.2 12.3 246 13.2
2007-01-16 08:32:30 51°10.794 2°43.196 248 12.3 246 13.2
2007-01-16 08:32:35 51°10.787 2°43.172 248.2 12.2 246 13.3
2007-01-16 08:32:40 51°10.781 2°43.147 248.4 12.2 246 13.1
2007-01-16 08:32:45 51°10.774 2°43.122 248.2 12.2 246 13.2
2007-01-16 08:32:50 51°10.767 2°43.098 248.7 12.2 246 13.3
2007-01-16 08:32:55 51°10.76 2°43.073 248.8 12.2 246 13.1
2007-01-16 08:33:00 51°10.753 2°43.048 248.5 12.2 246 13.2
2007-01-16 08:33:05 51°10.746 2°43.023 248.4 12.2 246 13.2
2007-01-16 08:33:10 51°10.74 2°42.999 248.5 12.3 247 13.2
2007-01-16 08:33:15 51°10.733 2°42.974 248.8 12.2 246 13.2
2007-01-16 08:33:20 51°10.726 2°42.949 248.7 12.3 246 13.2
2007-01-16 08:33:25 51°10.719 2°42.924 248.7 12.2 246 13.1
2007-01-16 08:33:30 51°10.712 2°42.9 248.4 12.2 245 13.2
2007-01-16 08:33:35 51°10.705 2°42.875 248.1 12.3 246 13.2
2007-01-16 08:33:40 51°10.698 2°42.85 248.2 12.2 246 13.1
2007-01-16 08:33:45 51°10.691 2°42.826 248.3 12.3 247 13.1
2007-01-16 08:33:50 51°10.685 2°42.801 248.4 12.2 247 13.1
2007-01-16 08:33:55 51°10.678 2°42.776 248.9 12.3 247 13.1
2007-01-16 08:34:00 51°10.671 2°42.751 249 12.2 247 13.1
2007-01-16 08:34:05 51°10.664 2°42.726 248.9 12.2 246 13.1
2007-01-16 08:34:10 51°10.657 2°42.702 248.5 12.2 246 13.1
2007-01-16 08:34:15 51°10.65 2°42.677 248.4 12.2 246 13
2007-01-16 08:34:20 51°10.644 2°42.652 248.2 12.2 246 13
2007-01-16 08:34:26 51°10.635 2°42.623 248.5 12.2 246 13.1
2007-01-16 08:34:30 51°10.63 2°42.603 248.2 12.2 246 13
2007-01-16 08:34:35 51°10.623 2°42.578 248.2 12.3 246 13
2007-01-16 08:34:40 51°10.616 2°42.554 248.2 12.2 246 13
2007-01-16 08:34:46 51°10.608 2°42.524 248.3 12.2 246 13
2007-01-16 08:34:50 51°10.602 2°42.504 248.6 12.2 246 13
2007-01-16 08:34:55 51°10.595 2°42.48 248.4 12.2 246 12.9
2007-01-16 08:35:00 51°10.589 2°42.455 248.3 12.2 247 13
2007-01-16 08:35:05 51°10.582 2°42.43 248.7 12.2 246 13
2007-01-16 08:35:11 51°10.574 2°42.401 248.8 12.2 246 13
2007-01-16 08:35:15 51°10.568 2°42.381 248.6 12.2 246 13
2007-01-16 08:35:20 51°10.561 2°42.357 248.3 12.2 246 13
2007-01-16 08:35:25 51°10.554 2°42.332 248.2 12.2 245 12.8
2007-01-16 08:35:30 51°10.547 2°42.308 248.1 12.3 246 13
2007-01-16 08:35:35 51°10.54 2°42.283 248.1 12.2 246 12.9
2007-01-16 08:35:40 51°10.533 2°42.258 248.2 12.2 246 12.9
2007-01-16 08:35:45 51°10.527 2°42.233 248.5 12.2 246 12.9
2007-01-16 08:35:50 51°10.52 2°42.209 248.4 12.3 246 12.9
2007-01-16 08:35:55 51°10.513 2°42.184 248.2 12.3 246 12.9
2007-01-16 08:36:00 51°10.506 2°42.16 248.2 12.2 246 12.8
2007-01-16 08:36:05 51°10.499 2°42.135 248.1 12.2 246 12.9
2007-01-16 08:36:10 51°10.492 2°42.11 248.2 12.2 246 12.9
2007-01-16 08:36:15 51°10.485 2°42.086 248.3 12.2 246 12.9
2007-01-16 08:36:20 51°10.479 2°42.061 248.6 12.2 247 12.8
2007-01-16 08:36:26 51°10.47 2°42.031 248.9 12.2 246 12.9
2007-01-16 08:36:30 51°10.465 2°42.012 248.8 12.2 246 12.9
2007-01-16 08:36:35 51°10.458 2°41.987 248.4 12.2 246 12.8
2007-01-16 08:36:40 51°10.451 2°41.963 248.3 12.2 246 12.8
2007-01-16 08:36:46 51°10.443 2°41.933 248.2 12.2 246 12.9
2007-01-16 08:36:50 51°10.437 2°41.913 248.2 12.2 246 12.8
2007-01-16 08:36:55 51°10.431 2°41.889 248.5 12.2 246 12.9
2007-01-16 08:37:00 51°10.424 2°41.864 248.6 12.2 246 12.9
2007-01-16 08:37:05 51°10.417 2°41.84 248.3 12.2 246 12.8
2007-01-16 08:37:10 51°10.41 2°41.815 248.3 12.2 245 12.8
2007-01-16 08:37:15 51°10.403 2°41.791 248 12.2 246 12.8
2007-01-16 08:37:20 51°10.396 2°41.766 248 12.2 246 12.9
2007-01-16 08:37:25 51°10.389 2°41.742 248 12.2 246 12.8
2007-01-16 08:37:30 51°10.382 2°41.717 248.2 12.2 246 12.9
2007-01-16 08:37:35 51°10.375 2°41.692 248.4 12.2 245 12.9
2007-01-16 08:37:40 51°10.368 2°41.668 248.2 12.3 246 12.9
2007-01-16 08:37:45 51°10.361 2°41.643 247.9 12.2 246 12.8
2007-01-16 08:37:50 51°10.354 2°41.619 248.2 12.1 245 12.8
2007-01-16 08:37:55 51°10.347 2°41.595 248.2 12.2 246 12.9
2007-01-16 08:38:00 51°10.34 2°41.57 248 12.2 245 12.8
2007-01-16 08:38:06 51°10.332 2°41.54 247.9 12.2 246 12.8
2007-01-16 08:38:10 51°10.326 2°41.521 248.2 12.2 245 12.8
2007-01-16 08:38:15 51°10.319 2°41.496 248.1 12.2 246 12.9
2007-01-16 08:38:20 51°10.312 2°41.472 248 12.2 245 12.8
2007-01-16 08:38:26 51°10.304 2°41.442 247.9 12.2 246 12.9
2007-01-16 08:38:30 51°10.299 2°41.422 247.9 12.2 246 12.8
2007-01-16 08:38:35 51°10.292 2°41.398 248.3 12.2 247 12.8
2007-01-16 08:38:40 51°10.285 2°41.373 248.6 12.2 247 12.8
2007-01-16 08:38:45 51°10.279 2°41.348 249.1 12.2 247 12.9
2007-01-16 08:38:50 51°10.272 2°41.324 248.9 12.1 246 12.8
2007-01-16 08:38:55 51°10.265 2°41.299 248.8 12.1 247 12.9
2007-01-16 08:39:01 51°10.257 2°41.27 248.5 12.1 246 12.8
2007-01-16 08:39:06 51°10.25 2°41.246 248.4 12.1 246 12.8
2007-01-16 08:39:10 51°10.245 2°41.226 248.5 12.1 247 12.8
2007-01-16 08:39:15 51°10.239 2°41.202 248.6 12.1 247 12.8
2007-01-16 08:39:20 51°10.232 2°41.177 248.9 12.1 246 12.8
2007-01-16 08:39:26 51°10.224 2°41.148 248.6 12 246 12.8
2007-01-16 08:39:30 51°10.218 2°41.129 248.4 12.1 245 12.8
2007-01-16 08:39:35 51°10.211 2°41.105 247.9 12.1 246 12.8
2007-01-16 08:39:40 51°10.204 2°41.081 247.9 12.1 246 12.9
2007-01-16 08:39:45 51°10.198 2°41.056 248 12.1 246 12.9
2007-01-16 08:39:51 51°10.19 2°41.027 248.2 12 246 12.8
2007-01-16 08:39:55 51°10.184 2°41.008 248.3 12.1 245 12.9
2007-01-16 08:40:00 51°10.177 2°40.983 248 12.1 246 12.9
2007-01-16 08:40:05 51°10.17 2°40.959 247.6 12 245 12.7
2007-01-16 08:40:10 51°10.164 2°40.935 247.6 12 246 12.9
2007-01-16 08:40:15 51°10.157 2°40.911 247.9 12 246 12.8
2007-01-16 08:40:20 51°10.15 2°40.887 248 12 246 12.8
2007-01-16 08:40:25 51°10.144 2°40.863 248 12 247 12.9
2007-01-16 08:40:30 51°10.137 2°40.839 248.5 12 246 12.9
2007-01-16 08:40:35 51°10.13 2°40.814 248.3 12 246 12.9
2007-01-16 08:40:40 51°10.123 2°40.791 248.1 12 246 12.9
2007-01-16 08:40:46 51°10.115 2°40.761 248 11.9 246 12.8
2007-01-16 08:40:50 51°10.11 2°40.742 248.1 11.9 246 12.9
2007-01-16 08:40:55 51°10.103 2°40.718 248.2 12 246 12.9
2007-01-16 08:41:00 51°10.096 2°40.694 248.1 12 246 12.8
2007-01-16 08:41:06 51°10.088 2°40.666 248.1 11.9 245 12.9
2007-01-16 08:41:10 51°10.083 2°40.646 248 12 246 12.8
2007-01-16 08:41:15 51°10.076 2°40.622 247.8 12 245 12.9
2007-01-16 08:41:20 51°10.069 2°40.598 247.7 12 245 12.9
2007-01-16 08:41:26 51°10.061 2°40.569 247.6 12 245 12.9
2007-01-16 08:41:30 51°10.055 2°40.55 247.6 12 245 12.8
2007-01-16 08:41:35 51°10.048 2°40.526 247.6 12 246 12.9
2007-01-16 08:41:40 51°10.041 2°40.502 247.6 12 245 13
2007-01-16 08:41:46 51°10.033 2°40.473 247.9 12.1 246 12.9
2007-01-16 08:41:50 51°10.027 2°40.453 248.2 12 246 12.9
2007-01-16 08:41:55 51°10.02 2°40.429 248.2 12 246 12.9
2007-01-16 08:42:00 51°10.014 2°40.405 248.2 12 245 13
2007-01-16 08:42:05 51°10.007 2°40.381 248 12 246 12.9
2007-01-16 08:42:10 51°10 2°40.357 248.1 12 246 12.9
2007-01-16 08:42:15 51°9.993 2°40.333 248.2 12 246 12.9
2007-01-16 08:42:20 51°9.986 2°40.309 248.1 12 245 12.8
2007-01-16 08:42:26 51°9.978 2°40.28 248 12 246 12.9
2007-01-16 08:42:30 51°9.972 2°40.26 247.7 12 245 12.8
2007-01-16 08:42:35 51°9.965 2°40.236 247.8 12.1 246 12.9
2007-01-16 08:42:40 51°9.958 2°40.212 247.9 12 246 12.9
2007-01-16 08:42:45 51°9.952 2°40.188 248 12.1 246 13
2007-01-16 08:42:50 51°9.945 2°40.163 248.2 12 246 12.8
2007-01-16 08:42:55 51°9.938 2°40.139 248.2 12 246 12.9
2007-01-16 08:43:00 51°9.932 2°40.115 248.5 12 247 13
2007-01-16 08:43:05 51°9.925 2°40.091 248.8 12.1 246 12.8
2007-01-16 08:43:10 51°9.918 2°40.066 248.5 12 246 13
2007-01-16 08:43:15 51°9.911 2°40.042 248.5 12 246 12.8
2007-01-16 08:43:20 51°9.904 2°40.018 248.4 12 246 12.9
2007-01-16 08:43:26 51°9.896 2°39.989 248.3 12 246 12.9
2007-01-16 08:43:30 51°9.891 2°39.97 248.6 12 246 12.9
2007-01-16 08:43:35 51°9.884 2°39.945 248.5 12 245 12.9
2007-01-16 08:43:40 51°9.877 2°39.921 248.2 12.1 246 12.9
2007-01-16 08:43:46 51°9.869 2°39.892 248 12 245 12.8
2007-01-16 08:43:50 51°9.863 2°39.873 248 12 246 12.9
2007-01-16 08:43:55 51°9.856 2°39.849 248 12.1 246 12.9
2007-01-16 08:44:00 51°9.849 2°39.825 248 12.1 246 12.9
2007-01-16 08:44:05 51°9.843 2°39.8 247.9 12 246 12.9
2007-01-16 08:44:11 51°9.834 2°39.771 248.2 12.1 246 12.9
2007-01-16 08:44:15 51°9.829 2°39.752 248.2 12.1 247 12.9
2007-01-16 08:44:20 51°9.822 2°39.727 248.8 12 246 12.8
2007-01-16 08:44:25 51°9.815 2°39.703 248.5 12.1 245 12.8
2007-01-16 08:44:31 51°9.807 2°39.674 248.1 12.1 247 12.9
2007-01-16 08:44:35 51°9.802 2°39.654 248.6 12 246 12.9
2007-01-16 08:44:40 51°9.795 2°39.63 248.6 12.1 246 12.9
2007-01-16 08:44:45 51°9.788 2°39.606 248.7 12.1 246 12.9
2007-01-16 08:44:50 51°9.781 2°39.582 248.5 12.1 246 12.8
2007-01-16 08:44:55 51°9.774 2°39.557 248.2 12 246 12.9
2007-01-16 08:45:00 51°9.767 2°39.533 248.1 12.1 246 12.8
2007-01-16 08:45:06 51°9.759 2°39.504 248.2 12.1 245 12.8
2007-01-16 08:45:10 51°9.754 2°39.485 247.8 12.1 246 12.9
2007-01-16 08:45:16 51°9.745 2°39.456 248.2 12.1 246 12.8
2007-01-16 08:45:20 51°9.74 2°39.436 248.3 12.1 247 12.9
2007-01-16 08:45:26 51°9.732 2°39.407 249 12.1 247 12.9
2007-01-16 08:45:30 51°9.727 2°39.387 249.2 12.1 247 13
2007-01-16 08:45:35 51°9.721 2°39.362 249.3 12.1 247 12.8
2007-01-16 08:45:40 51°9.714 2°39.338 249.4 12.1 247 12.9
2007-01-16 08:45:46 51°9.706 2°39.309 249 12.1 247 12.8
2007-01-16 08:45:50 51°9.701 2°39.289 248.9 12.1 246 12.9
2007-01-16 08:45:55 51°9.694 2°39.265 249.1 12.1 247 13
2007-01-16 08:46:00 51°9.687 2°39.24 248.6 12.1 247 12.9
2007-01-16 08:46:06 51°9.679 2°39.21 249.1 12.1 247 12.9
2007-01-16 08:46:10 51°9.674 2°39.191 249.2 12.1 247 13
2007-01-16 08:46:15 51°9.667 2°39.166 249.5 12.2 247 13
2007-01-16 08:46:20 51°9.661 2°39.141 249.6 12.2 247 13
2007-01-16 08:46:26 51°9.653 2°39.112 249.4 12.2 247 13
2007-01-16 08:46:30 51°9.648 2°39.092 249.5 12.2 247 13
2007-01-16 08:46:35 51°9.641 2°39.067 249.5 12.2 248 13
2007-01-16 08:46:40 51°9.634 2°39.042 249.7 12.1 247 13
2007-01-16 08:46:45 51°9.628 2°39.018 249.7 12.2 248 13.1
2007-01-16 08:46:50 51°9.621 2°38.993 249.5 12.2 247 13.1
2007-01-16 08:46:55 51°9.615 2°38.968 249.3 12.2 247 13.1
2007-01-16 08:47:00 51°9.608 2°38.943 249.2 12.3 247 13.1
2007-01-16 08:47:05 51°9.601 2°38.918 249.4 12.3 247 13.1
2007-01-16 08:47:10 51°9.595 2°38.893 249.4 12.2 246 13.2
2007-01-16 08:47:15 51°9.588 2°38.868 249.4 12.3 247 13.2
2007-01-16 08:47:20 51°9.582 2°38.843 249.3 12.3 246 13.2
2007-01-16 08:47:25 51°9.575 2°38.818 249.3 12.2 248 13.2
2007-01-16 08:47:30 51°9.569 2°38.793 249.6 12.2 247 13.2
2007-01-16 08:47:35 51°9.562 2°38.768 249.8 12.3 248 13.3
2007-01-16 08:47:40 51°9.555 2°38.743 249.7 12.3 247 13.2
2007-01-16 08:47:46 51°9.547 2°38.714 249.6 12.2 247 13.1
2007-01-16 08:47:50 51°9.542 2°38.694 249.5 12.3 247 13.3
2007-01-16 08:47:55 51°9.535 2°38.669 249.4 12.2 248 13.2
2007-01-16 08:48:00 51°9.529 2°38.644 249.5 12.3 247 13.3
2007-01-16 08:48:06 51°9.521 2°38.614 249.7 12.2 247 13.3
2007-01-16 08:48:10 51°9.516 2°38.594 249.6 12.2 247 13.2
2007-01-16 08:48:15 51°9.509 2°38.569 249.6 12.2 247 13.3
2007-01-16 08:48:20 51°9.502 2°38.544 249.7 12.2 247 13.3
2007-01-16 08:48:26 51°9.495 2°38.514 249.6 12.2 247 13.2
2007-01-16 08:48:31 51°9.489 2°38.489 249.6 12.3 249 13.3
2007-01-16 08:48:35 51°9.484 2°38.469 250.5 12.2 248 13.2
2007-01-16 08:48:40 51°9.477 2°38.444 250.8 12.3 250 13.3
2007-01-16 08:48:45 51°9.472 2°38.418 251.1 12.3 249 13.3
2007-01-16 08:48:50 51°9.465 2°38.393 251.6 12.2 250 13.3
2007-01-16 08:48:55 51°9.46 2°38.368 251.7 12.3 249 13.3
2007-01-16 08:49:00 51°9.453 2°38.342 251.7 12.2 249 13.3
2007-01-16 08:49:05 51°9.447 2°38.317 251.5 12.2 249 13.2
2007-01-16 08:49:10 51°9.441 2°38.292 251.4 12.3 249 13.3
2007-01-16 08:49:15 51°9.435 2°38.266 251.3 12.3 249 13.3
2007-01-16 08:49:20 51°9.429 2°38.241 251.4 12.3 249 13.3
2007-01-16 08:49:26 51°9.422 2°38.21 251.2 12.3 249 13.3
2007-01-16 08:49:30 51°9.417 2°38.19 251.4 12.3 249 13.3
2007-01-16 08:49:35 51°9.411 2°38.165 251.4 12.3 249 13.3
2007-01-16 08:49:40 51°9.405 2°38.139 251.4 12.3 249 13.3
2007-01-16 08:49:46 51°9.398 2°38.109 251.2 12.3 250 13.4
2007-01-16 08:49:50 51°9.393 2°38.089 251.3 12.2 249 13.3
2007-01-16 08:49:55 51°9.387 2°38.063 251.4 12.3 249 13.3
2007-01-16 08:50:00 51°9.381 2°38.038 251.3 12.3 249 13.3
2007-01-16 08:50:06 51°9.373 2°38.007 251.3 12.3 249 13.3
2007-01-16 08:50:10 51°9.369 2°37.987 251.3 12.3 249 13.3
2007-01-16 08:50:15 51°9.362 2°37.962 251.4 12.2 249 13.2
2007-01-16 08:50:20 51°9.356 2°37.937 251.4 12.3 249 13.2
2007-01-16 08:50:26 51°9.349 2°37.906 251.4 12.3 249 13.2
2007-01-16 08:50:30 51°9.344 2°37.886 251.2 12.3 249 13.3
2007-01-16 08:50:35 51°9.338 2°37.861 251.1 12.3 249 13.2
2007-01-16 08:50:40 51°9.332 2°37.836 251.1 12.3 249 13.3
2007-01-16 08:50:46 51°9.324 2°37.805 251 12.3 249 13.3
2007-01-16 08:50:50 51°9.319 2°37.785 250.9 12.3 249 13.3
2007-01-16 08:50:55 51°9.313 2°37.76 251.2 12.3 249 13.3
2007-01-16 08:51:00 51°9.307 2°37.734 251.5 12.3 250 13.3
2007-01-16 08:51:05 51°9.301 2°37.709 251.6 12.3 250 13.3
2007-01-16 08:51:11 51°9.294 2°37.679 251.7 12.3 249 13.2
2007-01-16 08:51:15 51°9.29 2°37.658 251.6 12.2 250 13.3
2007-01-16 08:51:20 51°9.283 2°37.633 251.6 12.2 248 13.3
2007-01-16 08:51:25 51°9.277 2°37.608 251.2 12.3 250 13.3
2007-01-16 08:51:30 51°9.271 2°37.583 251.4 12.3 249 13.3
2007-01-16 08:51:35 51°9.265 2°37.557 251.7 12.3 250 13.3
2007-01-16 08:51:40 51°9.259 2°37.532 251.4 12.3 249 13.3
2007-01-16 08:51:45 51°9.253 2°37.507 251.1 12.2 249 13.3
2007-01-16 08:51:50 51°9.247 2°37.482 251.3 12.2 249 13.3
2007-01-16 08:51:55 51°9.241 2°37.456 251.4 12.3 250 13.3
2007-01-16 08:52:00 51°9.235 2°37.431 251.5 12.3 249 13.3
2007-01-16 08:52:06 51°9.228 2°37.401 251.4 12.2 250 13.2
2007-01-16 08:52:10 51°9.224 2°37.38 251.4 12.2 250 13.3
2007-01-16 08:52:15 51°9.218 2°37.355 251.6 12.3 249 13.3
2007-01-16 08:52:20 51°9.212 2°37.329 251.5 12.3 250 13.3
2007-01-16 08:52:26 51°9.205 2°37.299 251.6 12.2 250 13.3
2007-01-16 08:52:30 51°9.2 2°37.279 251.7 12.3 249 13.3
2007-01-16 08:52:35 51°9.194 2°37.253 251.4 12.3 250 13.2
2007-01-16 08:52:40 51°9.188 2°37.228 251.5 12.3 250 13.3
2007-01-16 08:52:46 51°9.181 2°37.197 251.7 12.3 249 13.3
2007-01-16 08:52:50 51°9.176 2°37.177 251.7 12.3 251 13.2
2007-01-16 08:52:55 51°9.171 2°37.152 251.8 12.3 250 13.3
2007-01-16 08:53:00 51°9.165 2°37.126 252.4 12.3 252 13.2
2007-01-16 08:53:05 51°9.16 2°37.1 252.9 12.3 252 13.2
2007-01-16 08:53:10 51°9.154 2°37.074 253.4 12.3 251 13.3
2007-01-16 08:53:15 51°9.149 2°37.049 253.4 12.2 252 13.2
2007-01-16 08:53:20 51°9.144 2°37.023 253.6 12.3 251 13.4
2007-01-16 08:53:25 51°9.139 2°36.997 253.6 12.3 253 13.3
2007-01-16 08:53:30 51°9.133 2°36.972 253.9 12.2 251 13.3
2007-01-16 08:53:35 51°9.128 2°36.946 253.8 12.2 252 13.3
2007-01-16 08:53:40 51°9.123 2°36.92 253.7 12.2 251 13.3
2007-01-16 08:53:46 51°9.116 2°36.89 253.5 12.3 252 13.4
2007-01-16 08:53:50 51°9.112 2°36.869 253.6 12.3 251 13.5
2007-01-16 08:53:55 51°9.106 2°36.844 253.4 12.2 252 13.4
2007-01-16 08:54:00 51°9.101 2°36.818 253.3 12.2 251 13.5
2007-01-16 08:54:06 51°9.095 2°36.787 253.3 12.3 253 13.4
2007-01-16 08:54:10 51°9.09 2°36.767 253.5 12.2 251 13.5
2007-01-16 08:54:15 51°9.085 2°36.741 253.6 12.3 252 13.5
2007-01-16 08:54:20 51°9.08 2°36.715 253.6 12.2 252 13.5
2007-01-16 08:54:26 51°9.073 2°36.685 253.9 12.2 251 13.6
2007-01-16 08:54:30 51°9.069 2°36.664 253.3 12.2 252 13.5
2007-01-16 08:54:35 51°9.064 2°36.639 253.5 12.2 252 13.7
2007-01-16 08:54:41 51°9.057 2°36.608 253.4 12.2 251 13.5
2007-01-16 08:54:46 51°9.052 2°36.583 253.3 12.2 251 13.7
2007-01-16 08:54:50 51°9.047 2°36.563 253.1 12.1 252 13.6
2007-01-16 08:54:55 51°9.042 2°36.537 252.9 12.1 251 13.7
2007-01-16 08:55:00 51°9.036 2°36.512 253.2 12.2 251 13.7
2007-01-16 08:55:06 51°9.03 2°36.482 253.3 12.1 252 13.7
2007-01-16 08:55:10 51°9.026 2°36.461 253.6 12.1 252 13.7
2007-01-16 08:55:15 51°9.021 2°36.436 253.6 12.2 252 13.8
2007-01-16 08:55:20 51°9.016 2°36.41 253.9 12.2 252 13.8
2007-01-16 08:55:25 51°9.011 2°36.384 254 12.2 252 13.8
2007-01-16 08:55:31 51°9.005 2°36.354 253.8 12.2 253 13.9
2007-01-16 08:55:35 51°9.001 2°36.333 254 12.1 252 14
2007-01-16 08:55:40 51°8.995 2°36.308 254 12.2 252 14.1
2007-01-16 08:55:45 51°8.99 2°36.282 253.5 12.1 251 14
2007-01-16 08:55:50 51°8.985 2°36.257 253.1 12.2 252 14.2
2007-01-16 08:55:55 51°8.979 2°36.232 253 12.1 252 14.1
2007-01-16 08:56:00 51°8.974 2°36.206 253.2 12.1 252 14.2
2007-01-16 08:56:05 51°8.969 2°36.181 253.3 12.1 251 14.3
2007-01-16 08:56:10 51°8.963 2°36.156 253.3 12.2 252 14.3
2007-01-16 08:56:15 51°8.958 2°36.13 253.2 12.2 252 14.5
2007-01-16 08:56:20 51°8.953 2°36.105 253.3 12.2 252 14.5
2007-01-16 08:56:26 51°8.947 2°36.074 253.4 12.1 252 14.6
2007-01-16 08:56:30 51°8.942 2°36.054 253.4 12.1 252 14.6
2007-01-16 08:56:36 51°8.936 2°36.023 253.3 12 252 14.7
2007-01-16 08:56:40 51°8.932 2°36.003 253.3 12.1 252 14.8
2007-01-16 08:56:46 51°8.926 2°35.973 253.2 12.1 252 14.9
2007-01-16 08:56:50 51°8.921 2°35.952 253.2 12 252 14.7
2007-01-16 08:56:55 51°8.916 2°35.927 253.1 12 252 15
2007-01-16 08:57:00 51°8.911 2°35.902 253 12.1 252 15.1
2007-01-16 08:57:06 51°8.905 2°35.872 252.9 12 252 15.1
2007-01-16 08:57:10 51°8.9 2°35.851 253.2 12.1 251 15.2
2007-01-16 08:57:15 51°8.895 2°35.826 252.8 12.1 251 15.3
2007-01-16 08:57:20 51°8.889 2°35.801 252.8 12.1 252 15.3
2007-01-16 08:57:26 51°8.883 2°35.77 252.7 12.1 253 15.4
2007-01-16 08:57:30 51°8.879 2°35.75 253.3 12.1 252 15.5
2007-01-16 08:57:35 51°8.874 2°35.724 253.3 12.1 253 15.5